Latest Weather Observations for Ernabella/Pukatja

IDS60801

Issued at 4:31 pm CDT Wednesday 22 February 2017 (issued every 30 minutes, with the page automatically refreshed every 10 minutes)

About weather observations | Map of weather stations | Latest weather observations for SA | Other Formats
Station Details ID: 016097 Name: PUKATJA Lat: -26.26 Lon: 132.18 Height: 703.2 m
Data from the previous 72 hours. | See also: Recent months at Ernabella/Pukatja
Date/Time
CDT
Temp
°C
App
Temp
°C
Dew
Point
°C
Rel
Hum
%
Delta-T
°C
Wind Press
QNH
hPa
Press
MSL
hPa
Rain since
9am
mm
Dir  Spd
km/h
Gust
km/h
Spd
kts
Gust
kts
22/04:30pm 33.5 29.5 8.2 21 14.6 SW 19 28 10 15 1014.7 1009.5 0.0
22/04:00pm 32.6 29.7 8.1 22 14.0 SW 13 22 7 12 1015.0 1009.9 0.0
22/03:30pm 32.6 29.5 8.8 23 13.8 SSW 15 26 8 14 1015.1 1010.0 0.0
22/03:00pm 32.0 28.0 8.9 24 13.3 SW 20 28 11 15 1015.4 1010.2 0.0
22/02:30pm 31.6 29.4 9.2 25 13.0 WSW 11 20 6 11 1015.8 1010.6 0.0
22/02:00pm 30.2 26.8 9.1 27 12.1 SW 17 28 9 15 1016.2 1011.1 0.0
22/01:30pm 29.7 26.2 10.3 30 11.3 SW 19 28 10 15 1016.6 1011.5 0.0
22/01:00pm 28.9 25.6 9.6 30 11.1 WSW 17 24 9 13 1016.8 1011.7 0.0
22/12:30pm 27.4 23.9 10.2 34 9.9 WSW 19 26 10 14 1017.1 1011.9 0.0
22/12:00pm 26.8 22.7 10.1 35 9.6 SW 22 32 12 17 1017.4 1012.2 0.0
22/11:30am 25.6 21.1 11.4 41 8.3 SW 26 35 14 19 1017.5 1012.4 0.0
22/11:00am 26.0 20.8 10.2 37 9.1 SW 28 37 15 20 1017.4 1012.2 0.0
22/10:30am 27.0 20.0 2.1 20 12.5 WSW 28 35 15 19 1017.0 1011.8 0.0
22/10:00am 28.0 21.6 -2.0 14 14.1 SW 22 32 12 17 1016.8 1011.7 0.0
22/09:30am 27.7 23.1 -1.3 15 13.8 W 13 26 7 14 1016.7 1011.6 0.0
22/09:00am 26.0 22.6 -0.9 17 12.7 NNE 7 11 4 6 1015.4 1010.2 0.0
22/08:30am 24.3 21.6 0.6 21 11.4 N 4 7 2 4 1015.2 1010.1 0.0
22/08:00am 22.3 19.1 -0.4 22 10.5 NNW 6 11 3 6 1014.9 1009.8 0.0
22/07:30am 21.6 18.1 -1.6 21 10.5 NNW 7 13 4 7 1014.7 1009.5 0.0
22/07:00am 22.3 18.0 -1.7 20 10.9 NNE 11 19 6 10 1014.4 1009.2 0.0
22/06:30am 23.5 18.0 -2.2 18 11.6 NE 17 22 9 12 1014.2 1009.0 0.0
22/06:00am 22.2 17.1 -1.8 20 10.8 ENE 15 20 8 11 1014.0 1008.8 0.0
22/05:30am 21.8 17.1 -1.5 21 10.5 ENE 13 19 7 10 1013.7 1008.6 0.0
22/05:00am 21.2 16.5 -2.0 21 10.3 NE 13 17 7 9 1013.9 1008.7 0.0
22/04:30am 23.5 18.3 -2.9 17 11.8 NNE 15 20 8 11 1014.0 1008.8 0.0
22/04:00am 23.5 18.3 -2.9 17 11.8 N 15 22 8 12 1014.0 1008.8 0.0
22/03:30am 22.4 17.2 -3.1 18 11.2 NNE 15 17 8 9 1014.1 1008.9 0.0
22/03:00am 22.7 18.2 -3.6 17 11.5 NNE 11 15 6 8 1014.4 1009.2 0.0
22/02:30am 23.0 19.4 -3.3 17 11.6 NE 6 11 3 6 1014.6 1009.4 0.0
22/02:00am 23.3 19.8 -3.1 17 11.7 N 6 7 3 4 1014.8 1009.7 0.0
22/01:30am 23.3 20.1 -3.1 17 11.7 NNE 4 11 2 6 1014.8 1009.7 0.0
22/01:00am 22.6 18.1 -2.9 18 11.3 NE 11 13 6 7 1015.0 1009.9 0.0
22/12:30am 22.5 18.4 -3.0 18 11.3 NE 9 11 5 6 1015.1 1010.0 0.0
22/12:00am 22.7 19.1 -2.1 19 11.2 ENE 7 9 4 5 1015.2 1010.1 0.0
 
Date/Time
CDT
Temp
°C
App
Temp
°C
Dew
Point
°C
Rel
Hum
%
Delta-T
°C
Wind Press
QNH
hPa
Press
MSL
hPa
Rain since
9am
mm
Dir  Spd
km/h
Gust
km/h
Spd
kts
Gust
kts
21/11:30pm 21.4 17.5 -1.2 22 10.2 E 9 11 5 6 1015.2 1010.1 0.0
21/11:00pm 21.4 18.1 -1.2 22 10.2 E 6 9 3 5 1015.1 1010.0 0.0
21/10:30pm 22.8 19.5 -1.3 20 11.0 E 6 7 3 4 1015.0 1009.9 0.0
21/10:00pm 23.8 20.3 -2.7 17 11.9 ENE 6 7 3 4 1014.8 1009.7 0.0
21/09:30pm 24.1 20.7 -1.7 18 11.8 NE 6 6 3 3 1014.5 1009.3 0.0
21/09:00pm 25.1 21.7 -0.9 18 12.2 N 7 9 4 5 1014.3 1009.1 0.0
21/08:30pm 26.7 23.0 -0.3 17 13.0 N 9 11 5 6 1013.9 1008.7 0.0
21/08:00pm 29.6 25.5 -2.8 12 15.2 N 9 13 5 7 1013.5 1008.4 0.0
21/07:30pm 31.0 26.4 -4.1 10 16.3 NNW 11 17 6 9 1013.2 1008.0 0.0
21/07:00pm 31.4 26.3 -5.2 9 16.7 NNW 13 19 7 10 1013.1 1007.9 0.0
21/06:30pm 32.2 27.5 -4.6 9 17.1 NNW 11 17 6 9 1013.1 1007.9 0.0
21/06:00pm 32.6 27.3 -7.6 7 17.8 NNE 13 26 7 14 1013.2 1008.0 0.0
21/05:30pm 32.7 27.5 -5.8 8 17.6 N 13 20 7 11 1013.3 1008.1 0.0
21/05:00pm 32.6 26.8 -4.3 9 17.3 NW 17 28 9 15 1013.4 1008.2 0.0
21/04:30pm 32.1 26.7 -4.7 9 17.0 N 15 24 8 13 1013.9 1008.7 0.0
21/04:00pm 31.4 25.4 -6.8 8 17.0 NNW 17 28 9 15 1014.2 1009.0 0.0
21/03:30pm 31.7 25.9 -5.0 9 16.9 NW 17 28 9 15 1014.5 1009.3 0.0
21/03:00pm 32.0 26.3 -3.4 10 16.7 NE 17 35 9 19 1015.1 1010.0 0.0
21/02:30pm 31.3 26.1 -2.6 11 16.2 N 15 24 8 13 1015.7 1010.5 0.0
21/02:00pm 29.9 24.7 -2.6 12 15.3 N 15 28 8 15 1016.3 1011.2 0.0
21/01:30pm 30.0 24.6 -1.4 13 15.1 NNE 17 28 9 15 1016.6 1011.5 0.0
21/01:00pm 29.6 23.9 -0.7 14 14.7 N 19 30 10 16 1017.3 1012.1 0.0
21/12:30pm 27.9 22.1 -0.2 16 13.6 NNE 20 32 11 17 1017.7 1012.6 0.0
21/12:00pm 27.3 21.2 0.1 17 13.2 NNE 22 33 12 18 1018.2 1013.1 0.0
21/11:30am 27.2 21.2 0.8 18 13.0 NNE 22 35 12 19 1018.7 1013.5 0.0
21/11:00am 25.9 20.5 2.6 22 11.7 NNE 20 30 11 16 1018.9 1013.8 0.0
21/10:30am 24.7 19.4 2.8 24 10.9 NNE 20 30 11 16 1018.9 1013.8 0.0
21/10:00am 23.5 18.8 3.4 27 10.1 NNE 17 26 9 14 1018.9 1013.8 0.0
21/09:30am 21.9 17.2 3.1 29 9.3 NNE 17 28 9 15 1018.7 1013.5 0.0
21/09:00am 20.3 17.3 2.2 30 8.7 N 7 11 4 6 1018.5 1013.3 0.0
21/08:30am 18.8 15.8 2.2 33 7.9 ESE 7 9 4 5 1018.2 1013.1 0.0
21/08:24am 18.2 15.3 2.5 35 7.5 ESE 7 9 4 5 1018.1 1013.0 0.0
21/08:00am 13.2 10.5 2.4 48 4.9 ENE 6 9 3 5 1017.8 1012.7 0.0
21/07:30am 11.3 9.5 1.5 51 4.3 CALM 0 0 0 0 1017.6 1012.5 0.0
21/07:00am 12.5 10.7 1.2 46 5.0 CALM 0 0 0 0 1017.3 1012.1 0.0
21/06:30am 12.8 9.3 1.2 45 5.1 ESE 9 11 5 6 1017.1 1011.9 0.0
21/06:00am 12.4 10.1 0.5 44 5.2 ESE 2 6 1 3 1016.8 1011.7 0.0
21/05:30am 13.2 10.6 0.9 43 5.4 NNE 4 6 2 3 1016.8 1011.7 0.0
21/05:00am 12.8 8.9 1.2 45 5.1 E 11 13 6 7 1016.5 1011.4 0.0
21/04:30am 14.2 10.6 0.5 39 6.0 E 9 13 5 7 1016.6 1011.5 0.0
21/04:00am 13.6 9.6 0.3 40 5.8 ESE 11 13 6 7 1016.5 1011.4 0.0
21/03:30am 16.6 12.5 -0.1 32 7.4 E 11 11 6 6 1016.6 1011.5 0.0
21/03:00am 14.7 11.0 -0.2 36 6.5 E 9 13 5 7 1016.7 1011.6 0.0
21/02:30am 16.1 11.6 -0.2 33 7.2 ESE 13 15 7 8 1016.7 1011.6 0.0
21/02:00am 16.8 12.7 -0.4 31 7.6 E 11 13 6 7 1016.8 1011.7 0.0
21/01:30am 17.3 13.2 -0.4 30 7.9 ESE 11 13 6 7 1017.1 1011.9 0.0
21/01:00am 17.2 13.4 -0.5 30 7.9 ENE 9 9 5 5 1017.3 1012.1 0.0
21/12:30am 16.9 13.2 -0.3 31 7.6 E 9 11 5 6 1017.4 1012.2 0.0
21/12:00am 18.2 14.4 -0.6 28 8.4 E 9 11 5 6 1017.5 1012.4 0.0
 
Date/Time
CDT
Temp
°C
App
Temp
°C
Dew
Point
°C
Rel
Hum
%
Delta-T
°C
Wind Press
QNH
hPa
Press
MSL
hPa
Rain since
9am
mm
Dir  Spd
km/h
Gust
km/h
Spd
kts
Gust
kts
20/11:30pm 17.5 14.2 -0.2 30 7.9 E 7 9 4 5 1017.6 1012.5 0.0
20/11:00pm 18.1 15.0 0.3 30 8.1 NE 6 7 3 4 1017.5 1012.4 0.0
20/10:30pm 19.1 15.4 -0.3 27 8.8 ENE 9 11 5 6 1017.2 1012.0 0.0
20/10:00pm 20.5 17.1 -0.7 24 9.6 E 7 9 4 5 1017.1 1011.9 0.0
20/09:30pm 20.6 16.8 -0.7 24 9.7 NE 9 11 5 6 1016.7 1011.6 0.0
20/09:00pm 21.7 17.5 -0.9 22 10.3 E 11 13 6 7 1016.2 1011.1 0.0
20/08:30pm 23.3 19.0 -1.6 19 11.4 ENE 11 13 6 7 1015.9 1010.7 0.0
20/08:00pm 26.1 21.7 -2.5 15 13.1 ENE 11 17 6 9 1015.6 1010.4 0.0
20/07:30pm 27.6 22.2 -4.3 12 14.4 E 15 19 8 10 1015.2 1010.1 0.0
20/07:00pm 28.3 23.0 -3.8 12 14.7 E 15 22 8 12 1015.1 1010.0 0.0
20/06:30pm 29.0 24.1 -3.2 12 14.9 ESE 13 20 7 11 1015.1 1010.0 0.0
20/06:00pm 29.1 22.5 -3.2 12 15.0 ENE 22 32 12 17 1015.0 1009.9 0.0
20/05:30pm 29.3 23.5 -4.2 11 15.3 E 17 33 9 18 1015.0 1009.9 0.0
20/05:00pm 28.8 23.9 -3.4 12 14.9 E 13 20 7 11 1015.1 1010.0 0.0
20/04:30pm 28.3 23.2 -1.7 14 14.2 NNE 15 28 8 15 1015.4 1010.2 0.0
20/04:00pm 28.5 23.1 -1.6 14 14.3 NE 17 28 9 15 1015.6 1010.4 0.0
20/03:30pm 28.1 23.0 -1.9 14 14.1 NE 15 26 8 14 1016.0 1010.8 0.0
20/03:00pm 28.1 23.3 -0.1 16 13.7 NE 15 24 8 13 1016.5 1011.4 0.0
20/02:30pm 27.1 21.9 0.0 17 13.1 ENE 17 30 9 16 1016.8 1011.7 0.0
20/02:00pm 26.0 21.2 -0.1 18 12.5 ENE 15 26 8 14 1017.4 1012.2 0.0
20/01:30pm 26.7 22.0 1.2 19 12.6 E 15 26 8 14 1017.8 1012.7 0.0
20/01:00pm 24.8 20.4 0.3 20 11.7 ENE 13 26 7 14 1018.2 1013.1 0.0
20/12:30pm 24.0 19.8 1.6 23 10.9 ENE 13 26 7 14 1018.6 1013.4 0.0
20/12:00pm 23.3 18.5 0.4 22 10.8 ESE 15 26 8 14 1018.9 1013.8 0.0
20/11:30am 23.0 18.8 1.9 25 10.3 ENE 13 26 7 14 1019.3 1014.2 0.0
20/11:00am 22.1 17.4 1.2 25 10.0 ENE 15 24 8 13 1019.5 1014.4 0.0
20/10:30am 21.1 16.2 1.9 28 9.2 ENE 17 24 9 13 1019.6 1014.5 0.0
20/10:00am 20.3 15.4 1.7 29 8.8 ENE 17 22 9 12 1019.7 1014.6 0.0
20/09:30am 18.9 14.2 1.0 30 8.3 NE 15 17 8 9 1019.6 1014.5 0.0
20/09:00am 17.6 14.0 0.7 32 7.7 NE 9 13 5 7 1019.5 1014.4 0.0
20/08:30am 14.8 13.1 2.0 42 5.9 CALM 0 4 0 2 1019.4 1014.3 0.0
20/08:00am 12.3 9.5 1.9 49 4.7 WSW 6 7 3 4 1019.1 1014.0 0.0
20/07:30am 10.0 8.2 1.4 55 3.7 CALM 0 0 0 0 1018.7 1013.5 0.0
20/07:00am 10.8 9.1 1.9 54 3.9 CALM 0 0 0 0 1018.3 1013.2 0.0
20/06:30am 11.4 9.6 1.1 49 4.5 CALM 0 0 0 0 1018.2 1013.1 0.0
20/06:00am 11.1 9.0 1.4 51 4.2 ENE 2 7 1 4 1018.1 1013.0 0.0
20/05:30am 13.4 10.4 0.8 42 5.6 ENE 6 7 3 4 1018.0 1012.9 0.0
20/05:00am 12.9 9.9 1.0 44 5.3 NE 6 7 3 4 1017.9 1012.8 0.0
20/04:30am 13.6 9.6 0.6 41 5.7 E 11 15 6 8 1017.8 1012.7 0.0
20/04:00am 16.0 10.9 0.6 35 6.9 E 17 22 9 12 1017.9 1012.8 0.0
20/03:30am 14.3 9.9 0.6 39 6.1 ENE 13 13 7 7 1018.1 1013.0 0.0
20/03:00am 15.6 11.2 0.2 35 6.8 ENE 13 17 7 9 1018.1 1013.0 0.0
20/02:30am 17.3 12.5 0.0 31 7.8 ESE 15 20 8 11 1018.3 1013.2 0.0
20/02:00am 18.7 12.9 -0.2 28 8.5 ESE 20 30 11 16 1018.6 1013.4 0.0
20/01:30am 19.1 13.0 0.2 28 8.6 ESE 22 35 12 19 1018.6 1013.4 0.0
20/01:00am 19.4 13.7 0.4 28 8.7 SE 20 32 11 17 1018.8 1013.7 0.0
20/12:30am 19.7 14.0 0.7 28 8.8 ESE 20 33 11 18 1018.8 1013.7 0.0
20/12:00am 19.7 14.2 0.7 28 8.8 SE 19 30 10 16 1019.0 1013.9 0.0
 
Date/Time
CDT
Temp
°C
App
Temp
°C
Dew
Point
°C
Rel
Hum
%
Delta-T
°C
Wind Press
QNH
hPa
Press
MSL
hPa
Rain since
9am
mm
Dir  Spd
km/h
Gust
km/h
Spd
kts
Gust
kts
19/11:30pm 20.0 14.9 1.0 28 8.9 SE 17 24 9 13 1019.1 1014.0 0.0
19/11:00pm 20.1 15.8 1.0 28 8.9 SE 13 19 7 10 1019.0 1013.9 0.0
19/10:30pm 20.5 16.2 0.9 27 9.2 SE 13 19 7 10 1018.9 1013.8 0.0
19/10:00pm 21.3 17.0 1.0 26 9.6 SE 13 20 7 11 1018.5 1013.3 0.0
19/09:30pm 21.8 17.5 0.9 25 9.9 SE 13 19 7 10 1017.9 1012.8 0.0
19/09:00pm 22.4 18.1 0.9 24 10.2 SE 13 17 7 9 1017.7 1012.6 0.0
19/08:30pm 23.0 18.2 0.2 22 10.7 SE 15 20 8 11 1017.3 1012.1 0.0
19/08:00pm 23.8 18.6 0.2 21 11.2 SE 17 26 9 14 1017.1 1011.9 0.0
19/07:30pm 24.7 19.2 0.3 20 11.7 SSE 19 26 10 14 1016.8 1011.7 0.0
19/07:00pm 25.1 19.6 0.6 20 11.8 SSE 19 30 10 16 1016.5 1011.4 0.0
19/06:30pm 26.3 20.8 0.9 19 12.4 SSE 19 26 10 14 1016.4 1011.3 0.0
19/06:00pm 26.5 21.0 1.7 20 12.3 S 20 28 11 15 1016.2 1011.1 0.0
19/05:30pm 27.0 22.2 2.8 21 12.3 SSE 17 26 9 14 1016.3 1011.2 0.0
19/05:00pm 26.6 21.3 3.2 22 12.0 SE 20 28 11 15 1016.4 1011.3 0.0

Other Formats:

Comma delimited format used in spreadsheet applications
http://www.bom.gov.au/fwo/IDS60801/IDS60801.94474.axf

JavaScript Object Notation format (JSON) in row-major order
http://www.bom.gov.au/fwo/IDS60801/IDS60801.94474.json